createdAt,value
2023-05-22T00:00:07.672Z,8.77
2023-05-22T00:02:38.938Z,9.05
2023-05-22T00:05:10.273Z,10.30
2023-05-22T00:07:39.867Z,8.40
2023-05-22T00:10:11.664Z,9.05
2023-05-22T00:12:40.407Z,9.38
2023-05-22T00:15:11.601Z,8.57
2023-05-22T00:17:40.144Z,8.75
2023-05-22T00:20:11.184Z,9.25
2023-05-22T00:22:39.772Z,8.80
2023-05-22T00:25:11.840Z,8.50
2023-05-22T00:27:40.193Z,8.30
2023-05-22T00:30:11.116Z,8.68
2023-05-22T00:32:40.480Z,8.93
2023-05-22T00:35:11.055Z,7.97
2023-05-22T00:37:39.463Z,7.53
2023-05-22T00:40:12.159Z,8.95
2023-05-22T00:42:40.492Z,7.60
2023-05-22T00:45:10.981Z,7.35
2023-05-22T00:47:39.433Z,8.40
2023-05-22T00:50:11.021Z,8.00
2023-05-22T00:52:44.180Z,7.50
2023-05-22T00:55:16.874Z,6.88
2023-05-22T00:57:46.060Z,7.13
2023-05-22T01:00:16.841Z,7.55
2023-05-22T01:02:45.449Z,6.50
2023-05-22T01:05:18.298Z,7.65
2023-05-22T01:07:47.312Z,7.63
2023-05-22T01:10:17.447Z,8.50
2023-05-22T01:12:56.501Z,8.13
2023-05-22T01:15:36.575Z,7.30
2023-05-22T01:18:19.874Z,7.40
2023-05-22T01:20:59.077Z,7.22
2023-05-22T01:24:19.305Z,7.65
2023-05-22T01:27:26.037Z,7.38
2023-05-22T01:30:18.929Z,7.88
2023-05-22T01:32:50.083Z,8.07
2023-05-22T01:35:19.894Z,8.23
2023-05-22T01:37:49.356Z,7.82
2023-05-22T01:40:19.116Z,7.68
2023-05-22T01:42:47.560Z,8.23
2023-05-22T01:45:16.500Z,8.27
2023-05-22T01:47:45.438Z,6.95
2023-05-22T01:50:16.285Z,8.32
2023-05-22T01:52:55.168Z,7.45
2023-05-22T01:55:30.864Z,7.97
2023-05-22T01:58:06.243Z,8.27
2023-05-22T02:00:36.452Z,8.13
2023-05-22T02:03:13.368Z,8.65
2023-05-22T02:05:44.586Z,8.15
2023-05-22T02:08:14.569Z,8.18
2023-05-22T02:10:44.617Z,7.53
2023-05-22T02:13:13.644Z,7.50
2023-05-22T02:15:42.397Z,6.70
2023-05-22T02:18:13.100Z,8.23
2023-05-22T02:20:43.185Z,7.55
2023-05-22T02:23:11.626Z,7.65
2023-05-22T02:25:40.067Z,7.38
2023-05-22T02:28:08.430Z,7.00
2023-05-22T02:30:37.086Z,8.10
2023-05-22T02:33:06.724Z,7.50
2023-05-22T02:35:35.187Z,7.78
2023-05-22T02:38:05.102Z,8.13
2023-05-22T02:40:33.504Z,8.32
2023-05-22T02:43:01.992Z,7.10
2023-05-22T02:45:30.593Z,8.27
2023-05-22T02:48:00.330Z,8.20
2023-05-22T02:50:28.768Z,8.63
2023-05-22T02:52:57.192Z,8.52
2023-05-22T02:55:26.924Z,8.20
2023-05-22T02:57:55.349Z,9.40
2023-05-22T03:00:23.988Z,8.07
2023-05-22T03:02:52.484Z,9.13
2023-05-22T03:05:20.878Z,7.82
2023-05-22T03:07:49.379Z,8.73
2023-05-22T03:10:18.655Z,9.02
2023-05-22T03:12:48.449Z,8.02
2023-05-22T03:15:17.476Z,9.32
2023-05-22T03:17:45.905Z,8.30
2023-05-22T03:20:16.995Z,8.05
2023-05-22T03:22:45.817Z,8.90
2023-05-22T03:25:14.263Z,6.18
2023-05-22T03:27:42.647Z,8.30
2023-05-22T03:30:14.119Z,7.15
2023-05-22T03:32:42.644Z,8.48
2023-05-22T03:35:13.162Z,8.45
2023-05-22T03:37:41.578Z,8.15
2023-05-22T03:40:11.290Z,7.85
2023-05-22T03:42:39.939Z,8.45
2023-05-22T03:45:11.895Z,9.18
2023-05-22T03:47:40.343Z,8.02
2023-05-22T03:50:09.837Z,9.07
2023-05-22T03:52:38.233Z,7.80
2023-05-22T03:55:08.679Z,7.70
2023-05-22T03:57:37.072Z,8.73
2023-05-22T04:00:09.808Z,8.10
2023-05-22T04:02:40.313Z,7.97
2023-05-22T04:05:11.039Z,8.35
2023-05-22T04:07:39.572Z,7.72
2023-05-22T04:10:09.377Z,8.20
2023-05-22T04:12:37.858Z,7.75
2023-05-22T04:15:10.583Z,7.85
2023-05-22T04:17:42.080Z,8.07
2023-05-22T04:20:11.635Z,8.32
2023-05-22T04:22:41.275Z,8.82
2023-05-22T04:25:10.561Z,9.48
2023-05-22T04:27:39.075Z,9.07
2023-05-22T04:30:10.595Z,8.52
2023-05-22T04:32:40.987Z,9.40
2023-05-22T04:35:12.288Z,8.80
2023-05-22T04:37:42.334Z,8.85
2023-05-22T04:40:11.698Z,9.95
2023-05-22T04:42:41.063Z,10.15
2023-05-22T04:45:10.701Z,8.35
2023-05-22T04:47:41.732Z,7.88
2023-05-22T04:50:11.058Z,7.18
2023-05-22T04:52:39.394Z,7.38
2023-05-22T04:55:09.256Z,7.22
2023-05-22T04:57:37.640Z,6.65
2023-05-22T05:00:09.389Z,6.78
2023-05-22T05:02:37.837Z,7.50
2023-05-22T05:05:08.793Z,7.20
2023-05-22T05:07:39.616Z,8.88
2023-05-22T05:10:09.388Z,8.63
2023-05-22T05:12:37.783Z,8.52
2023-05-22T05:15:08.045Z,9.10
2023-05-22T05:17:36.561Z,8.98
2023-05-22T05:20:09.493Z,8.68
2023-05-22T05:22:38.188Z,8.43
2023-05-22T05:25:09.597Z,9.32
2023-05-22T05:27:39.918Z,8.15
2023-05-22T05:30:10.850Z,8.43
2023-05-22T05:32:39.953Z,7.97
2023-05-22T05:35:10.997Z,7.57
2023-05-22T05:37:39.365Z,7.95
2023-05-22T05:40:10.176Z,7.55
2023-05-22T05:42:38.639Z,8.05
2023-05-22T05:45:08.402Z,8.27
2023-05-22T05:47:36.790Z,8.85
2023-05-22T05:50:06.461Z,7.78
2023-05-22T05:52:36.172Z,8.55
2023-05-22T05:55:04.722Z,8.40
2023-05-22T05:57:33.223Z,8.40
2023-05-22T06:00:01.649Z,7.85
2023-05-22T06:02:30.273Z,8.73
2023-05-22T06:04:59.042Z,7.75
2023-05-22T06:07:28.746Z,7.80
2023-05-22T06:09:58.830Z,8.63
2023-05-22T06:12:27.277Z,7.82
2023-05-22T06:14:55.719Z,8.82
2023-05-22T06:17:24.255Z,6.85
2023-05-22T06:19:52.635Z,8.98
2023-05-22T06:22:21.224Z,8.82
2023-05-22T06:24:49.642Z,7.57
2023-05-22T06:27:20.194Z,8.20
2023-05-22T06:29:48.566Z,8.18
2023-05-22T06:32:17.327Z,7.20
2023-05-22T06:34:48.680Z,8.05
2023-05-22T06:37:17.254Z,6.97
2023-05-22T06:39:45.850Z,7.10
2023-05-22T06:42:14.266Z,6.70
2023-05-22T06:44:44.189Z,6.78
2023-05-22T06:47:13.094Z,6.82
2023-05-22T06:49:41.493Z,6.70
2023-05-22T06:52:10.188Z,6.07
2023-05-22T06:54:42.855Z,7.28
2023-05-22T06:57:11.553Z,7.88
2023-05-22T06:59:39.906Z,6.43
2023-05-22T07:02:09.657Z,6.32
2023-05-22T07:04:38.119Z,6.60
2023-05-22T07:07:06.758Z,6.97
2023-05-22T07:09:35.216Z,7.55
2023-05-22T07:12:03.574Z,7.90
2023-05-22T07:14:32.002Z,8.90
2023-05-22T07:17:00.581Z,7.05
2023-05-22T07:19:30.569Z,6.93
2023-05-22T07:22:00.246Z,7.60
2023-05-22T07:24:28.743Z,7.38
2023-05-22T07:26:57.246Z,7.57
2023-05-22T07:29:26.561Z,8.25
2023-05-22T07:31:58.433Z,7.50
2023-05-22T07:34:31.986Z,7.03
2023-05-22T07:37:02.430Z,8.20
2023-05-22T07:39:30.898Z,8.00
2023-05-22T07:41:59.583Z,8.65
2023-05-22T07:44:29.888Z,7.72
2023-05-22T07:46:59.618Z,7.35
2023-05-22T07:49:28.148Z,7.07
2023-05-22T07:51:56.651Z,7.63
2023-05-22T07:54:26.488Z,7.80
2023-05-22T07:56:56.301Z,6.45
2023-05-22T07:59:25.615Z,7.95
2023-05-22T08:01:54.230Z,7.43
2023-05-22T08:04:23.017Z,7.95
2023-05-22T08:06:51.603Z,7.47
2023-05-22T08:09:21.293Z,7.93
2023-05-22T08:11:51.077Z,6.75
2023-05-22T08:14:19.526Z,7.15
2023-05-22T08:16:47.920Z,6.57
2023-05-22T08:19:16.651Z,7.55
2023-05-22T08:21:45.166Z,8.35
2023-05-22T08:24:13.586Z,7.85
2023-05-22T08:26:43.622Z,9.32
2023-05-22T08:29:13.437Z,8.23
2023-05-22T08:31:41.840Z,10.10
2023-05-22T08:34:11.201Z,7.82
2023-05-22T08:36:39.550Z,7.88
2023-05-22T08:39:08.758Z,9.30
2023-05-22T08:41:37.466Z,9.02
2023-05-22T08:44:06.371Z,8.98
2023-05-22T08:46:38.296Z,8.20
2023-05-22T08:49:06.916Z,8.18
2023-05-22T08:51:38.874Z,7.80
2023-05-22T08:54:08.436Z,7.75
2023-05-22T08:56:45.404Z,7.63
2023-05-22T08:59:23.176Z,6.85
2023-05-22T09:01:55.040Z,7.55
2023-05-22T09:04:24.347Z,7.15
2023-05-22T09:06:53.266Z,6.45
2023-05-22T09:09:21.662Z,7.00
2023-05-22T09:11:51.528Z,6.93
2023-05-22T09:14:20.494Z,6.13
2023-05-22T09:16:50.421Z,6.97
2023-05-22T09:19:20.357Z,6.90
2023-05-22T09:21:48.910Z,7.28
2023-05-22T09:24:17.408Z,7.07
2023-05-22T09:26:46.297Z,7.75
2023-05-22T09:29:14.680Z,7.38
2023-05-22T09:31:44.925Z,7.07
2023-05-22T09:34:15.861Z,7.22
2023-05-22T09:36:45.861Z,7.07
2023-05-22T09:39:14.414Z,7.22
2023-05-22T09:41:45.282Z,6.72
2023-05-22T09:44:14.988Z,6.60
2023-05-22T09:46:46.441Z,6.80
2023-05-22T09:49:16.730Z,6.47
2023-05-22T09:51:49.017Z,7.07
2023-05-22T09:54:19.986Z,6.30
2023-05-22T09:56:51.379Z,7.15
2023-05-22T09:59:23.732Z,7.32
2023-05-22T10:01:52.887Z,7.78
2023-05-22T10:04:24.441Z,8.25
2023-05-22T10:06:57.658Z,7.70
2023-05-22T10:09:31.225Z,8.07
2023-05-22T10:12:05.328Z,7.35
2023-05-22T10:14:35.793Z,7.25
2023-05-22T10:17:06.985Z,7.07
2023-05-22T10:19:39.429Z,6.90
2023-05-22T10:22:20.721Z,7.50
2023-05-22T10:24:50.000Z,7.18
2023-05-22T10:27:18.514Z,7.85
2023-05-22T10:29:54.208Z,8.60
2023-05-22T10:32:34.317Z,8.02
2023-05-22T10:35:19.381Z,6.95
2023-05-22T10:37:53.253Z,7.22
2023-05-22T10:40:29.291Z,7.68
2023-05-22T10:43:01.769Z,5.97
2023-05-22T10:45:30.701Z,6.63
2023-05-22T10:48:06.897Z,6.18
2023-05-22T10:50:35.863Z,6.35
2023-05-22T10:53:25.909Z,6.50
2023-05-22T10:55:56.817Z,7.30
2023-05-22T10:58:30.566Z,7.20
2023-05-22T11:01:14.277Z,6.25
2023-05-22T11:03:57.195Z,5.90
2023-05-22T11:06:43.075Z,6.60
2023-05-22T11:09:29.397Z,6.07
2023-05-22T11:12:31.409Z,6.22
2023-05-22T11:15:06.554Z,6.30
2023-05-22T11:17:46.418Z,5.72
2023-05-22T11:20:21.496Z,6.15
2023-05-22T11:22:56.947Z,6.18
2023-05-22T11:25:28.745Z,5.78
2023-05-22T11:27:57.557Z,5.93
2023-05-22T11:30:28.003Z,5.18
2023-05-22T11:32:58.515Z,6.60
2023-05-22T11:35:27.244Z,7.72
2023-05-22T11:37:57.111Z,6.47
2023-05-22T11:40:29.895Z,6.07
2023-05-22T11:42:58.336Z,6.10
2023-05-22T11:45:27.841Z,6.13
2023-05-22T11:47:56.947Z,6.22
2023-05-22T11:50:40.201Z,5.75
2023-05-22T11:53:12.688Z,5.40
2023-05-22T11:55:44.325Z,5.93
2023-05-22T11:58:12.778Z,5.57
2023-05-22T12:00:41.389Z,5.50
2023-05-22T12:03:10.247Z,6.68
2023-05-22T12:05:38.772Z,5.72
2023-05-22T12:08:07.326Z,6.00
2023-05-22T12:10:35.832Z,6.18
2023-05-22T12:13:05.605Z,5.57
2023-05-22T12:15:34.094Z,5.45
2023-05-22T12:18:02.556Z,6.53
2023-05-22T12:20:31.664Z,5.72
2023-05-22T12:23:00.159Z,5.47
2023-05-22T12:25:37.171Z,5.43
2023-05-22T12:28:08.421Z,6.05
2023-05-22T12:30:43.566Z,6.28
2023-05-22T12:33:15.650Z,5.55
2023-05-22T12:35:44.148Z,5.65
2023-05-22T12:38:13.670Z,6.45
2023-05-22T12:40:42.759Z,5.35
2023-05-22T12:43:12.573Z,6.22
2023-05-22T12:45:42.452Z,6.30
2023-05-22T12:48:12.200Z,5.13
2023-05-22T12:50:40.990Z,5.22
2023-05-22T12:53:09.674Z,5.60
2023-05-22T12:55:38.221Z,5.63
2023-05-22T12:58:06.839Z,5.40
2023-05-22T13:00:36.778Z,5.78
2023-05-22T13:03:06.627Z,5.10
2023-05-22T13:05:35.096Z,5.72
2023-05-22T13:08:03.547Z,5.30
2023-05-22T13:10:32.060Z,5.03
2023-05-22T13:13:00.463Z,6.80
2023-05-22T13:15:29.684Z,5.03
2023-05-22T13:18:00.608Z,5.22
2023-05-22T13:20:29.152Z,4.82
2023-05-22T13:22:57.572Z,6.07
2023-05-22T13:25:26.138Z,5.65
2023-05-22T13:27:54.604Z,5.90
2023-05-22T13:30:26.012Z,6.03
2023-05-22T13:32:54.516Z,5.75
2023-05-22T13:35:24.470Z,5.25
2023-05-22T13:37:52.906Z,4.97
2023-05-22T13:40:22.176Z,5.43
2023-05-22T13:42:52.160Z,5.97
2023-05-22T13:45:20.842Z,5.63
2023-05-22T13:47:49.799Z,6.60
2023-05-22T13:50:18.610Z,5.90
2023-05-22T13:52:48.388Z,5.47
2023-05-22T13:55:16.808Z,5.40
2023-05-22T13:57:45.189Z,5.88
2023-05-22T14:00:15.765Z,5.72
2023-05-22T14:02:45.637Z,5.70
2023-05-22T14:05:14.443Z,5.55
2023-05-22T14:07:43.857Z,5.90
2023-05-22T14:10:14.418Z,5.68
2023-05-22T14:12:42.828Z,5.03
2023-05-22T14:15:12.043Z,5.47
2023-05-22T14:17:40.571Z,6.45
2023-05-22T14:20:10.806Z,5.20
2023-05-22T14:22:55.823Z,5.70
2023-05-22T14:25:27.030Z,5.30
2023-05-22T14:27:55.526Z,5.43
2023-05-22T14:30:23.980Z,5.30
2023-05-22T14:32:52.772Z,5.78
2023-05-22T14:35:21.380Z,5.55
2023-05-22T14:37:50.029Z,5.85
2023-05-22T14:40:18.581Z,5.82
2023-05-22T14:42:48.364Z,5.60
2023-05-22T14:45:17.099Z,6.10
2023-05-22T14:47:45.600Z,5.28
2023-05-22T14:50:19.815Z,5.82
2023-05-22T14:52:49.444Z,5.22
2023-05-22T14:55:18.605Z,5.60
2023-05-22T14:57:48.390Z,5.90
2023-05-22T15:00:17.971Z,5.80
2023-05-22T15:02:46.443Z,6.13
2023-05-22T15:05:15.073Z,5.93
2023-05-22T15:07:46.122Z,5.07
2023-05-22T15:10:15.277Z,5.20
2023-05-22T15:12:43.716Z,5.65
2023-05-22T15:15:14.017Z,5.72
2023-05-22T15:17:43.044Z,6.10
2023-05-22T15:20:13.122Z,5.13
2023-05-22T15:22:41.797Z,5.22
2023-05-22T15:25:14.862Z,5.55
2023-05-22T15:27:44.133Z,5.50
2023-05-22T15:30:16.890Z,5.45
2023-05-22T15:32:45.607Z,5.10
2023-05-22T15:35:14.927Z,7.32
2023-05-22T15:37:43.555Z,5.45
2023-05-22T15:40:16.284Z,5.78
2023-05-22T15:42:44.871Z,5.43
2023-05-22T15:45:14.767Z,6.03
2023-05-22T15:47:43.471Z,5.95
2023-05-22T15:50:12.334Z,5.50
2023-05-22T15:52:41.100Z,5.70
2023-05-22T15:55:10.181Z,5.50
2023-05-22T15:57:39.288Z,5.50
2023-05-22T16:00:09.893Z,5.72
2023-05-22T16:02:39.730Z,5.60
2023-05-22T16:05:08.706Z,5.88
2023-05-22T16:07:37.192Z,5.32
2023-05-22T16:10:07.293Z,5.22
2023-05-22T16:12:35.717Z,7.25
2023-05-22T16:15:06.709Z,6.65
2023-05-22T16:17:35.558Z,5.20
2023-05-22T16:20:06.819Z,5.40
2023-05-22T16:22:47.288Z,5.80
2023-05-22T16:25:18.195Z,6.28
2023-05-22T16:27:46.753Z,5.50
2023-05-22T16:30:17.365Z,4.95
2023-05-22T16:32:47.154Z,6.38
2023-05-22T16:35:19.613Z,5.30
2023-05-22T16:37:48.058Z,5.82
2023-05-22T16:40:17.568Z,6.78
2023-05-22T16:42:46.068Z,6.65
2023-05-22T16:45:14.590Z,5.57
2023-05-22T16:47:43.055Z,5.70
2023-05-22T16:50:11.986Z,6.25
2023-05-22T16:52:41.814Z,6.15
2023-05-22T16:55:11.214Z,6.20
2023-05-22T16:57:40.184Z,5.45
2023-05-22T17:00:11.805Z,6.30
2023-05-22T17:02:40.659Z,5.93
2023-05-22T17:05:09.774Z,5.93
2023-05-22T17:07:38.263Z,6.57
2023-05-22T17:10:09.562Z,5.45
2023-05-22T17:12:37.969Z,5.97
2023-05-22T17:15:07.930Z,4.47
2023-05-22T17:17:36.413Z,5.18
2023-05-22T17:20:07.234Z,5.10
2023-05-22T17:22:36.662Z,5.45
2023-05-22T17:25:06.331Z,4.78
2023-05-22T17:27:36.992Z,4.85
2023-05-22T17:30:07.725Z,5.75
2023-05-22T17:32:36.851Z,5.10
2023-05-22T17:35:07.135Z,6.43
2023-05-22T17:37:35.628Z,5.45
2023-05-22T17:40:04.888Z,5.30
2023-05-22T17:42:33.317Z,5.28
2023-05-22T17:45:03.130Z,5.45
2023-05-22T17:47:31.587Z,5.93
2023-05-22T17:50:00.005Z,5.97
2023-05-22T17:52:28.474Z,6.03
2023-05-22T17:54:57.054Z,6.07
2023-05-22T17:57:26.051Z,6.03
2023-05-22T17:59:54.468Z,5.57
2023-05-22T18:02:24.489Z,5.72
2023-05-22T18:04:52.966Z,5.30
2023-05-22T18:07:21.372Z,6.93
2023-05-22T18:09:49.835Z,5.70
2023-05-22T18:12:31.042Z,5.07
2023-05-22T18:15:00.443Z,5.18
2023-05-22T18:17:30.302Z,5.75
2023-05-22T18:19:58.779Z,5.65
2023-05-22T18:22:27.210Z,5.18
2023-05-22T18:24:55.627Z,8.18
2023-05-22T18:27:24.108Z,6.13
2023-05-22T18:29:52.544Z,6.88
2023-05-22T18:32:20.959Z,6.70
2023-05-22T18:34:50.853Z,6.63
2023-05-22T18:37:19.704Z,5.43
2023-05-22T18:39:48.483Z,6.82
2023-05-22T18:42:17.191Z,7.13
2023-05-22T18:44:47.504Z,5.88
2023-05-22T18:47:17.497Z,6.35
2023-05-22T18:49:45.930Z,6.15
2023-05-22T18:52:15.944Z,6.90
2023-05-22T18:54:44.378Z,7.20
2023-05-22T18:57:13.446Z,9.55
2023-05-22T18:59:42.378Z,6.03
2023-05-22T19:02:10.984Z,6.85
2023-05-22T19:04:39.514Z,6.18
2023-05-22T19:07:07.994Z,6.03
2023-05-22T19:09:39.549Z,6.78
2023-05-22T19:12:08.382Z,6.22
2023-05-22T19:14:36.822Z,5.93
2023-05-22T19:17:05.733Z,5.95
2023-05-22T19:19:34.301Z,6.60
2023-05-22T19:22:02.975Z,6.65
2023-05-22T19:24:31.406Z,6.32
2023-05-22T19:27:01.206Z,6.10
2023-05-22T19:29:29.594Z,6.00
2023-05-22T19:31:58.368Z,5.60
2023-05-22T19:34:27.228Z,6.55
2023-05-22T19:36:57.811Z,6.07
2023-05-22T19:39:26.737Z,6.15
2023-05-22T19:41:55.167Z,6.43
2023-05-22T19:44:25.122Z,8.70
2023-05-22T19:46:53.561Z,6.75
2023-05-22T19:49:22.117Z,6.88
2023-05-22T19:51:50.562Z,6.88
2023-05-22T19:54:19.050Z,6.05
2023-05-22T19:56:47.503Z,6.03
2023-05-22T19:59:15.987Z,6.97
2023-05-22T20:01:45.898Z,6.57
2023-05-22T20:04:14.530Z,6.68
2023-05-22T20:06:45.233Z,6.25
2023-05-22T20:09:13.721Z,6.85
2023-05-22T20:11:42.395Z,8.52
2023-05-22T20:14:11.754Z,8.30
2023-05-22T20:16:40.295Z,8.02
2023-05-22T20:19:10.434Z,7.63
2023-05-22T20:21:39.098Z,6.82
2023-05-22T20:24:17.463Z,7.00
2023-05-22T20:26:46.160Z,5.50
2023-05-22T20:29:15.416Z,7.03
2023-05-22T20:31:44.172Z,7.90
2023-05-22T20:34:13.918Z,6.22
2023-05-22T20:36:42.802Z,7.45
2023-05-22T20:39:12.006Z,6.75
2023-05-22T20:41:40.623Z,8.15
2023-05-22T20:44:09.552Z,5.93
2023-05-22T20:46:38.008Z,6.82
2023-05-22T20:49:06.443Z,5.80
2023-05-22T20:51:36.844Z,5.82
2023-05-22T20:54:05.515Z,5.65
2023-05-22T20:56:33.964Z,6.05
2023-05-22T20:59:02.414Z,6.38
2023-05-22T21:01:30.951Z,6.50
2023-05-22T21:03:59.418Z,6.43
2023-05-22T21:06:28.025Z,5.78
2023-05-22T21:09:01.247Z,7.22
2023-05-22T21:11:29.768Z,7.93
2023-05-22T21:13:58.390Z,6.72
2023-05-22T21:16:26.864Z,6.90
2023-05-22T21:18:55.283Z,6.78
2023-05-22T21:21:23.765Z,7.50
2023-05-22T21:23:52.593Z,6.53
2023-05-22T21:26:23.125Z,7.32
2023-05-22T21:28:51.673Z,6.75
2023-05-22T21:31:20.123Z,8.40
2023-05-22T21:33:48.580Z,7.82
2023-05-22T21:36:16.970Z,7.93
2023-05-22T21:38:45.544Z,5.72
2023-05-22T21:41:15.880Z,7.40
2023-05-22T21:43:47.355Z,6.28
2023-05-22T21:46:15.777Z,6.35
2023-05-22T21:48:44.168Z,6.75
2023-05-22T21:51:12.559Z,6.05
2023-05-22T21:53:40.897Z,6.80
2023-05-22T21:56:10.188Z,7.18
2023-05-22T21:58:38.557Z,6.82
2023-05-22T22:01:08.578Z,6.70
2023-05-22T22:03:38.769Z,7.95
2023-05-22T22:06:08.060Z,7.75
2023-05-22T22:08:36.504Z,7.20
2023-05-22T22:11:04.890Z,9.10
2023-05-22T22:13:33.380Z,7.30
2023-05-22T22:16:01.912Z,8.18
2023-05-22T22:18:34.005Z,9.45
2023-05-22T22:21:02.562Z,9.27
2023-05-22T22:23:31.297Z,8.65
2023-05-22T22:25:59.688Z,9.30
2023-05-22T22:28:28.411Z,8.52
2023-05-22T22:30:56.933Z,8.85
2023-05-22T22:33:25.480Z,10.07
2023-05-22T22:35:55.210Z,8.65
2023-05-22T22:38:23.758Z,9.23
2023-05-22T22:40:52.202Z,9.25
2023-05-22T22:43:20.697Z,10.30
2023-05-22T22:45:49.212Z,10.65
2023-05-22T22:48:17.733Z,11.80
2023-05-22T22:50:46.941Z,10.70
2023-05-22T22:53:16.789Z,9.23
2023-05-22T22:55:45.969Z,29.13
2023-05-22T22:58:14.534Z,13.30
2023-05-22T23:00:42.961Z,12.48
2023-05-22T23:03:11.482Z,10.25
2023-05-22T23:05:40.150Z,9.38
2023-05-22T23:08:08.814Z,8.93
2023-05-22T23:10:38.535Z,8.07
2023-05-22T23:13:07.006Z,8.77
2023-05-22T23:15:35.707Z,10.25
2023-05-22T23:18:04.157Z,10.40
2023-05-22T23:20:32.550Z,10.02
2023-05-22T23:23:00.926Z,9.85
2023-05-22T23:25:29.236Z,10.15
2023-05-22T23:27:58.998Z,10.10
2023-05-22T23:30:27.620Z,9.50
2023-05-22T23:32:56.081Z,9.82
2023-05-22T23:35:24.488Z,9.63
2023-05-22T23:37:52.875Z,10.98
2023-05-22T23:40:21.245Z,10.63
2023-05-22T23:42:49.694Z,10.93
2023-05-22T23:45:19.519Z,9.43
2023-05-22T23:47:47.967Z,9.57
2023-05-22T23:50:16.670Z,9.02
2023-05-22T23:52:45.025Z,8.27
2023-05-22T23:55:13.562Z,8.93
2023-05-22T23:57:42.135Z,9.38
